sensor_id;sensor_type;location;lat;lon;timestamp;pressure;altitude;pressure_sealevel;temperature;humidity
13705;BME280;6924;52.122;9.952;2023-03-22T00:01:26;100095.25;;;7.78;100.00
13705;BME280;6924;52.122;9.952;2023-03-22T00:03:55;100088.97;;;7.81;100.00
13705;BME280;6924;52.122;9.952;2023-03-22T00:06:22;100098.06;;;7.78;100.00
13705;BME280;6924;52.122;9.952;2023-03-22T00:08:50;100091.78;;;7.81;100.00
13705;BME280;6924;52.122;9.952;2023-03-22T00:11:17;100090.34;;;7.84;100.00
13705;BME280;6924;52.122;9.952;2023-03-22T00:13:44;100093.81;;;7.95;100.00
13705;BME280;6924;52.122;9.952;2023-03-22T00:16:11;100093.72;;;8.00;100.00
13705;BME280;6924;52.122;9.952;2023-03-22T00:18:38;100090.59;;;8.01;100.00
13705;BME280;6924;52.122;9.952;2023-03-22T00:21:09;100094.34;;;7.97;100.00
13705;BME280;6924;52.122;9.952;2023-03-22T00:23:37;100087.16;;;8.04;100.00
13705;BME280;6924;52.122;9.952;2023-03-22T00:26:06;100084.88;;;8.06;100.00
13705;BME280;6924;52.122;9.952;2023-03-22T00:28:32;100085.50;;;8.03;100.00
13705;BME280;6924;52.122;9.952;2023-03-22T00:31:00;100089.84;;;7.96;100.00
13705;BME280;6924;52.122;9.952;2023-03-22T00:33:27;100084.84;;;7.93;100.00
13705;BME280;6924;52.122;9.952;2023-03-22T00:35:57;100089.41;;;7.89;100.00
13705;BME280;6924;52.122;9.952;2023-03-22T00:38:24;100088.81;;;7.92;100.00
13705;BME280;6924;52.122;9.952;2023-03-22T00:41:06;100085.91;;;7.97;100.00
13705;BME280;6924;52.122;9.952;2023-03-22T00:43:33;100079.03;;;8.03;100.00
13705;BME280;6924;52.122;9.952;2023-03-22T00:45:59;100087.03;;;7.96;100.00
13705;BME280;6924;52.122;9.952;2023-03-22T00:48:26;100072.34;;;7.99;100.00
13705;BME280;6924;52.122;9.952;2023-03-22T00:50:52;100074.34;;;7.98;100.00
13705;BME280;6924;52.122;9.952;2023-03-22T00:53:18;100074.00;;;8.00;100.00
13705;BME280;6924;52.122;9.952;2023-03-22T00:55:45;100073.28;;;7.94;100.00
13705;BME280;6924;52.122;9.952;2023-03-22T00:58:12;100071.13;;;8.05;100.00
13705;BME280;6924;52.122;9.952;2023-03-22T01:00:39;100073.81;;;8.10;100.00
13705;BME280;6924;52.122;9.952;2023-03-22T01:03:05;100065.66;;;8.08;100.00
13705;BME280;6924;52.122;9.952;2023-03-22T01:05:33;100059.44;;;8.12;100.00
13705;BME280;6924;52.122;9.952;2023-03-22T01:08:00;100053.22;;;7.96;100.00
13705;BME280;6924;52.122;9.952;2023-03-22T01:10:30;100052.63;;;7.99;100.00
13705;BME280;6924;52.122;9.952;2023-03-22T01:12:57;100048.75;;;7.95;100.00
13705;BME280;6924;52.122;9.952;2023-03-22T01:15:24;100048.75;;;7.95;100.00
13705;BME280;6924;52.122;9.952;2023-03-22T01:17:51;100043.03;;;8.00;100.00
13705;BME280;6924;52.122;9.952;2023-03-22T01:20:17;100035.09;;;8.02;100.00
13705;BME280;6924;52.122;9.952;2023-03-22T01:22:44;100041.66;;;7.97;100.00
13705;BME280;6924;52.122;9.952;2023-03-22T01:25:10;100032.91;;;7.99;100.00
13705;BME280;6924;52.122;9.952;2023-03-22T01:27:37;100028.22;;;7.94;100.00
13705;BME280;6924;52.122;9.952;2023-03-22T01:30:04;100024.56;;;7.94;100.00
13705;BME280;6924;52.122;9.952;2023-03-22T01:32:32;100029.69;;;7.92;100.00
13705;BME280;6924;52.122;9.952;2023-03-22T01:34:59;100026.44;;;7.98;100.00
13705;BME280;6924;52.122;9.952;2023-03-22T01:37:25;100009.97;;;7.92;100.00
13705;BME280;6924;52.122;9.952;2023-03-22T01:39:52;100020.78;;;7.84;100.00
13705;BME280;6924;52.122;9.952;2023-03-22T01:42:19;100006.16;;;7.82;100.00
13705;BME280;6924;52.122;9.952;2023-03-22T01:47:49;100005.56;;;7.72;100.00
13705;BME280;6924;52.122;9.952;2023-03-22T01:50:18;100001.34;;;7.69;100.00
13705;BME280;6924;52.122;9.952;2023-03-22T01:52:44;99998.25;;;7.71;100.00
13705;BME280;6924;52.122;9.952;2023-03-22T01:55:11;99998.00;;;7.67;100.00
13705;BME280;6924;52.122;9.952;2023-03-22T01:57:39;100004.69;;;7.71;100.00
13705;BME280;6924;52.122;9.952;2023-03-22T02:00:10;100002.34;;;7.78;100.00
13705;BME280;6924;52.122;9.952;2023-03-22T02:02:40;100000.88;;;7.81;100.00
13705;BME280;6924;52.122;9.952;2023-03-22T02:05:08;99998.25;;;7.84;100.00
13705;BME280;6924;52.122;9.952;2023-03-22T02:07:37;100001.69;;;7.81;100.00
13705;BME280;6924;52.122;9.952;2023-03-22T02:10:09;100004.50;;;7.81;100.00
13705;BME280;6924;52.122;9.952;2023-03-22T02:12:42;99999.63;;;7.87;100.00
13705;BME280;6924;52.122;9.952;2023-03-22T02:15:19;99997.41;;;7.84;100.00
13705;BME280;6924;52.122;9.952;2023-03-22T02:18:00;99998.69;;;7.92;100.00
13705;BME280;6924;52.122;9.952;2023-03-22T02:23:49;99994.50;;;7.89;100.00
13705;BME280;6924;52.122;9.952;2023-03-22T02:26:56;99989.72;;;7.90;100.00
13705;BME280;6924;52.122;9.952;2023-03-22T02:29:31;100000.53;;;7.82;100.00
13705;BME280;6924;52.122;9.952;2023-03-22T02:32:15;99999.41;;;7.83;100.00
13705;BME280;6924;52.122;9.952;2023-03-22T02:35:04;99990.34;;;7.86;100.00
13705;BME280;6924;52.122;9.952;2023-03-22T02:38:19;99997.66;;;7.88;100.00
13705;BME280;6924;52.122;9.952;2023-03-22T02:40:53;99986.78;;;7.81;100.00
13705;BME280;6924;52.122;9.952;2023-03-22T02:43:28;99984.69;;;7.86;100.00
13705;BME280;6924;52.122;9.952;2023-03-22T02:46:05;99990.84;;;7.89;100.00
13705;BME280;6924;52.122;9.952;2023-03-22T02:48:39;99988.16;;;7.97;100.00
13705;BME280;6924;52.122;9.952;2023-03-22T02:51:10;99982.41;;;8.02;100.00
13705;BME280;6924;52.122;9.952;2023-03-22T02:53:42;99979.50;;;8.07;100.00
13705;BME280;6924;52.122;9.952;2023-03-22T02:56:13;99983.28;;;8.03;100.00
13705;BME280;6924;52.122;9.952;2023-03-22T02:58:43;99979.59;;;8.02;100.00
13705;BME280;6924;52.122;9.952;2023-03-22T03:01:15;99981.06;;;8.00;100.00
13705;BME280;6924;52.122;9.952;2023-03-22T03:03:46;99983.69;;;7.96;100.00
13705;BME280;6924;52.122;9.952;2023-03-22T03:06:17;99990.97;;;7.97;100.00
13705;BME280;6924;52.122;9.952;2023-03-22T03:08:47;99989.50;;;8.00;100.00
13705;BME280;6924;52.122;9.952;2023-03-22T03:11:17;99981.16;;;8.08;100.00
13705;BME280;6924;52.122;9.952;2023-03-22T03:13:45;99982.84;;;8.10;100.00
13705;BME280;6924;52.122;9.952;2023-03-22T03:16:13;99980.56;;;8.12;100.00
13705;BME280;6924;52.122;9.952;2023-03-22T03:18:46;99978.88;;;8.11;100.00
13705;BME280;6924;52.122;9.952;2023-03-22T03:21:23;99978.28;;;8.14;100.00
13705;BME280;6924;52.122;9.952;2023-03-22T03:24:02;99977.22;;;8.10;100.00
13705;BME280;6924;52.122;9.952;2023-03-22T03:26:38;99971.47;;;8.15;100.00
13705;BME280;6924;52.122;9.952;2023-03-22T03:29:10;99966.25;;;8.08;100.00
13705;BME280;6924;52.122;9.952;2023-03-22T03:31:42;99968.03;;;8.04;100.00
13705;BME280;6924;52.122;9.952;2023-03-22T03:34:15;99967.91;;;8.09;100.00
13705;BME280;6924;52.122;9.952;2023-03-22T03:36:49;99971.06;;;8.07;100.00
13705;BME280;6924;52.122;9.952;2023-03-22T03:39:19;99955.50;;;8.10;100.00
13705;BME280;6924;52.122;9.952;2023-03-22T03:41:50;99964.72;;;8.16;100.00
13705;BME280;6924;52.122;9.952;2023-03-22T03:44:18;99964.06;;;8.19;100.00
13705;BME280;6924;52.122;9.952;2023-03-22T03:46:46;99954.44;;;8.20;100.00
13705;BME280;6924;52.122;9.952;2023-03-22T03:49:14;99960.94;;;8.20;100.00
13705;BME280;6924;52.122;9.952;2023-03-22T03:51:47;99948.41;;;8.26;100.00
13705;BME280;6924;52.122;9.952;2023-03-22T03:54:14;99951.75;;;8.28;100.00
13705;BME280;6924;52.122;9.952;2023-03-22T03:56:42;99952.25;;;8.31;100.00
13705;BME280;6924;52.122;9.952;2023-03-22T03:59:09;99946.72;;;8.39;100.00
13705;BME280;6924;52.122;9.952;2023-03-22T04:01:36;99941.03;;;8.44;100.00
13705;BME280;6924;52.122;9.952;2023-03-22T04:04:04;99939.72;;;8.51;100.00
13705;BME280;6924;52.122;9.952;2023-03-22T04:06:30;99943.50;;;8.46;100.00
13705;BME280;6924;52.122;9.952;2023-03-22T04:08:58;99944.03;;;8.48;100.00
13705;BME280;6924;52.122;9.952;2023-03-22T04:11:26;99944.66;;;8.45;100.00
13705;BME280;6924;52.122;9.952;2023-03-22T04:13:52;99939.03;;;8.45;100.00
13705;BME280;6924;52.122;9.952;2023-03-22T04:16:20;99939.72;;;8.37;100.00
13705;BME280;6924;52.122;9.952;2023-03-22T04:18:46;99927.94;;;8.35;100.00
13705;BME280;6924;52.122;9.952;2023-03-22T04:21:12;99932.75;;;8.34;100.00
13705;BME280;6924;52.122;9.952;2023-03-22T04:23:40;99927.41;;;8.33;100.00
13705;BME280;6924;52.122;9.952;2023-03-22T04:26:10;99928.16;;;8.24;100.00
13705;BME280;6924;52.122;9.952;2023-03-22T04:28:37;99921.25;;;8.31;100.00
13705;BME280;6924;52.122;9.952;2023-03-22T04:31:03;99918.06;;;8.23;100.00
13705;BME280;6924;52.122;9.952;2023-03-22T04:33:32;99910.63;;;8.27;100.00
13705;BME280;6924;52.122;9.952;2023-03-22T04:36:04;99921.25;;;8.31;100.00
13705;BME280;6924;52.122;9.952;2023-03-22T04:38:31;99910.50;;;8.33;100.00
13705;BME280;6924;52.122;9.952;2023-03-22T04:40:57;99914.50;;;8.32;100.00
13705;BME280;6924;52.122;9.952;2023-03-22T04:43:24;99915.22;;;8.23;100.00
13705;BME280;6924;52.122;9.952;2023-03-22T04:45:50;99914.06;;;8.24;100.00
13705;BME280;6924;52.122;9.952;2023-03-22T04:48:18;99908.94;;;8.26;100.00
13705;BME280;6924;52.122;9.952;2023-03-22T04:50:47;99908.56;;;8.19;100.00
13705;BME280;6924;52.122;9.952;2023-03-22T04:53:17;99913.06;;;8.20;100.00
13705;BME280;6924;52.122;9.952;2023-03-22T04:55:43;99903.56;;;8.16;100.00
13705;BME280;6924;52.122;9.952;2023-03-22T04:58:10;99904.50;;;8.12;100.00
13705;BME280;6924;52.122;9.952;2023-03-22T05:00:36;99903.13;;;8.09;100.00
13705;BME280;6924;52.122;9.952;2023-03-22T05:03:03;99905.47;;;8.07;100.00
13705;BME280;6924;52.122;9.952;2023-03-22T05:05:29;99911.28;;;8.11;100.00
13705;BME280;6924;52.122;9.952;2023-03-22T05:07:57;99916.09;;;8.10;100.00
13705;BME280;6924;52.122;9.952;2023-03-22T05:10:24;99910.22;;;8.06;100.00
13705;BME280;6924;52.122;9.952;2023-03-22T05:12:50;99916.09;;;8.10;100.00
13705;BME280;6924;52.122;9.952;2023-03-22T05:15:16;99910.16;;;8.12;100.00
13705;BME280;6924;52.122;9.952;2023-03-22T05:17:43;99908.16;;;8.12;100.00
13705;BME280;6924;52.122;9.952;2023-03-22T05:20:10;99907.63;;;8.10;100.00
13705;BME280;6924;52.122;9.952;2023-03-22T05:22:36;99908.34;;;8.02;100.00
13705;BME280;6924;52.122;9.952;2023-03-22T05:25:07;99907.41;;;8.06;100.00
13705;BME280;6924;52.122;9.952;2023-03-22T05:27:34;99907.63;;;8.10;100.00
13705;BME280;6924;52.122;9.952;2023-03-22T05:30:04;99910.22;;;8.06;100.00
13705;BME280;6924;52.122;9.952;2023-03-22T05:32:30;99913.03;;;8.06;100.00
13705;BME280;6924;52.122;9.952;2023-03-22T05:34:57;99917.34;;;8.04;100.00
13705;BME280;6924;52.122;9.952;2023-03-22T05:37:27;99926.53;;;8.10;100.00
13705;BME280;6924;52.122;9.952;2023-03-22T05:39:54;99919.19;;;8.08;100.00
13705;BME280;6924;52.122;9.952;2023-03-22T05:42:21;99918.25;;;8.13;100.00
13705;BME280;6924;52.122;9.952;2023-03-22T05:44:48;99912.97;;;8.12;100.00
13705;BME280;6924;52.122;9.952;2023-03-22T05:47:14;99921.28;;;8.17;100.00
13705;BME280;6924;52.122;9.952;2023-03-22T05:49:40;99920.47;;;8.16;100.00
13705;BME280;6924;52.122;9.952;2023-03-22T05:52:07;99916.06;;;8.24;100.00
13705;BME280;6924;52.122;9.952;2023-03-22T05:54:33;99911.91;;;8.21;100.00
13705;BME280;6924;52.122;9.952;2023-03-22T05:57:00;99910.34;;;8.29;100.00
13705;BME280;6924;52.122;9.952;2023-03-22T05:59:27;99905.72;;;8.33;100.00
13705;BME280;6924;52.122;9.952;2023-03-22T06:01:54;99901.22;;;8.32;100.00
13705;BME280;6924;52.122;9.952;2023-03-22T06:04:20;99900.06;;;8.33;100.00
13705;BME280;6924;52.122;9.952;2023-03-22T06:06:47;99898.09;;;8.34;100.00
13705;BME280;6924;52.122;9.952;2023-03-22T06:09:14;99894.34;;;8.38;100.00
13705;BME280;6924;52.122;9.952;2023-03-22T06:11:41;99892.69;;;8.51;100.00
13705;BME280;6924;52.122;9.952;2023-03-22T06:14:07;99888.25;;;8.59;100.00
13705;BME280;6924;52.122;9.952;2023-03-22T06:16:35;99901.00;;;8.56;100.00
13705;BME280;6924;52.122;9.952;2023-03-22T06:19:01;99893.88;;;8.59;100.00
13705;BME280;6924;52.122;9.952;2023-03-22T06:21:28;99887.81;;;8.65;100.00
13705;BME280;6924;52.122;9.952;2023-03-22T06:23:54;99896.13;;;8.71;100.00
13705;BME280;6924;52.122;9.952;2023-03-22T06:26:21;99891.88;;;8.73;100.00
13705;BME280;6924;52.122;9.952;2023-03-22T06:28:47;99892.56;;;8.79;100.00
13705;BME280;6924;52.122;9.952;2023-03-22T06:31:13;99893.38;;;8.79;100.00
13705;BME280;6924;52.122;9.952;2023-03-22T06:33:41;99901.84;;;8.79;100.00
13705;BME280;6924;52.122;9.952;2023-03-22T06:36:09;99900.25;;;8.87;100.00
13705;BME280;6924;52.122;9.952;2023-03-22T06:38:36;99889.16;;;8.90;100.00
13705;BME280;6924;52.122;9.952;2023-03-22T06:41:02;99888.59;;;9.02;100.00
13705;BME280;6924;52.122;9.952;2023-03-22T06:43:29;99887.50;;;9.12;100.00
13705;BME280;6924;52.122;9.952;2023-03-22T06:45:55;99882.69;;;9.13;100.00
13705;BME280;6924;52.122;9.952;2023-03-22T06:48:22;99893.19;;;9.21;100.00
13705;BME280;6924;52.122;9.952;2023-03-22T06:50:49;99894.22;;;9.25;100.00
13705;BME280;6924;52.122;9.952;2023-03-22T06:53:16;99896.28;;;9.33;100.00
13705;BME280;6924;52.122;9.952;2023-03-22T06:55:42;99893.81;;;9.40;100.00
13705;BME280;6924;52.122;9.952;2023-03-22T06:58:09;99888.03;;;9.45;100.00
13705;BME280;6924;52.122;9.952;2023-03-22T07:00:35;99899.19;;;9.50;100.00
13705;BME280;6924;52.122;9.952;2023-03-22T07:03:02;99887.09;;;9.59;100.00
13705;BME280;6924;52.122;9.952;2023-03-22T07:05:29;99881.91;;;9.52;100.00
13705;BME280;6924;52.122;9.952;2023-03-22T07:07:57;99878.41;;;9.46;100.00
13705;BME280;6924;52.122;9.952;2023-03-22T07:10:24;99873.59;;;9.47;100.00
13705;BME280;6924;52.122;9.952;2023-03-22T07:12:50;99873.78;;;9.50;100.00
13705;BME280;6924;52.122;9.952;2023-03-22T07:15:17;99875.94;;;9.54;100.00
13705;BME280;6924;52.122;9.952;2023-03-22T07:17:48;99868.50;;;9.58;100.00
13705;BME280;6924;52.122;9.952;2023-03-22T07:20:14;99866.38;;;9.72;100.00
13705;BME280;6924;52.122;9.952;2023-03-22T07:22:41;99870.88;;;9.73;100.00
13705;BME280;6924;52.122;9.952;2023-03-22T07:25:09;99856.31;;;9.88;100.00
13705;BME280;6924;52.122;9.952;2023-03-22T07:27:35;99846.06;;;10.01;99.70
13705;BME280;6924;52.122;9.952;2023-03-22T07:30:02;99850.22;;;10.12;100.00
13705;BME280;6924;52.122;9.952;2023-03-22T07:32:28;99856.91;;;10.17;97.92
13705;BME280;6924;52.122;9.952;2023-03-22T07:34:55;99849.59;;;10.24;98.65
13705;BME280;6924;52.122;9.952;2023-03-22T07:37:21;99854.09;;;10.25;98.20
13705;BME280;6924;52.122;9.952;2023-03-22T07:39:48;99849.13;;;10.31;98.77
13705;BME280;6924;52.122;9.952;2023-03-22T07:42:15;99843.81;;;10.47;99.32
13705;BME280;6924;52.122;9.952;2023-03-22T07:44:42;99849.47;;;10.64;97.60
13705;BME280;6924;52.122;9.952;2023-03-22T07:47:08;99850.47;;;10.77;98.72
13705;BME280;6924;52.122;9.952;2023-03-22T07:49:35;99851.47;;;10.90;97.55
13705;BME280;6924;52.122;9.952;2023-03-22T07:52:01;99853.91;;;11.09;96.64
13705;BME280;6924;52.122;9.952;2023-03-22T07:54:28;99856.06;;;11.21;95.52
13705;BME280;6924;52.122;9.952;2023-03-22T07:56:54;99854.22;;;11.33;95.17
13705;BME280;6924;52.122;9.952;2023-03-22T07:59:22;99841.69;;;11.43;93.68
13705;BME280;6924;52.122;9.952;2023-03-22T08:01:49;99839.84;;;11.47;92.65
13705;BME280;6924;52.122;9.952;2023-03-22T08:04:15;99843.00;;;11.46;90.41
13705;BME280;6924;52.122;9.952;2023-03-22T08:06:43;99838.97;;;11.55;91.77
13705;BME280;6924;52.122;9.952;2023-03-22T08:09:10;99840.81;;;11.51;89.82
13705;BME280;6924;52.122;9.952;2023-03-22T08:11:37;99840.66;;;11.48;91.29
13705;BME280;6924;52.122;9.952;2023-03-22T08:14:03;99836.00;;;11.43;90.09
13705;BME280;6924;52.122;9.952;2023-03-22T08:16:31;99836.19;;;11.47;90.90
13705;BME280;6924;52.122;9.952;2023-03-22T08:18:57;99838.66;;;11.48;90.17
13705;BME280;6924;52.122;9.952;2023-03-22T08:21:24;99832.66;;;11.50;89.25
13705;BME280;6924;52.122;9.952;2023-03-22T08:23:51;99831.81;;;11.58;90.79
13705;BME280;6924;52.122;9.952;2023-03-22T08:26:17;99827.81;;;11.50;89.29
13705;BME280;6924;52.122;9.952;2023-03-22T08:28:44;99823.97;;;11.55;89.66
13705;BME280;6924;52.122;9.952;2023-03-22T08:31:11;99826.81;;;11.55;88.76
13705;BME280;6924;52.122;9.952;2023-03-22T08:33:39;99822.66;;;11.52;89.04
13705;BME280;6924;52.122;9.952;2023-03-22T08:36:07;99824.78;;;11.64;91.61
13705;BME280;6924;52.122;9.952;2023-03-22T08:38:34;99817.72;;;11.70;91.41
13705;BME280;6924;52.122;9.952;2023-03-22T08:41:01;99815.56;;;11.76;87.93
13705;BME280;6924;52.122;9.952;2023-03-22T08:43:28;99805.19;;;11.80;90.26
13705;BME280;6924;52.122;9.952;2023-03-22T08:45:54;99807.53;;;11.78;88.36
13705;BME280;6924;52.122;9.952;2023-03-22T08:48:21;99802.38;;;11.80;88.75
13705;BME280;6924;52.122;9.952;2023-03-22T08:50:49;99791.31;;;11.87;87.97
13705;BME280;6924;52.122;9.952;2023-03-22T08:53:15;99795.78;;;11.97;89.45
13705;BME280;6924;52.122;9.952;2023-03-22T08:55:42;99787.75;;;11.99;88.00
13705;BME280;6924;52.122;9.952;2023-03-22T08:58:09;99788.25;;;12.01;86.54
13705;BME280;6924;52.122;9.952;2023-03-22T09:00:36;99785.91;;;12.03;86.62
13705;BME280;6924;52.122;9.952;2023-03-22T09:03:03;99781.22;;;12.07;87.08
13705;BME280;6924;52.122;9.952;2023-03-22T09:05:29;99774.03;;;12.10;85.56
13705;BME280;6924;52.122;9.952;2023-03-22T09:07:57;99772.81;;;12.19;87.33
13705;BME280;6924;52.122;9.952;2023-03-22T09:10:24;99763.81;;;12.17;85.64
13705;BME280;6924;52.122;9.952;2023-03-22T09:12:50;99766.09;;;12.24;85.50
13705;BME280;6924;52.122;9.952;2023-03-22T09:15:17;99767.97;;;12.20;84.28
13705;BME280;6924;52.122;9.952;2023-03-22T09:17:43;99773.91;;;12.27;84.33
13705;BME280;6924;52.122;9.952;2023-03-22T09:20:10;99768.94;;;12.24;84.18
13705;BME280;6924;52.122;9.952;2023-03-22T09:22:37;99761.81;;;12.18;83.57
13705;BME280;6924;52.122;9.952;2023-03-22T09:25:05;99755.34;;;12.30;84.18
13705;BME280;6924;52.122;9.952;2023-03-22T09:27:32;99768.78;;;12.42;83.92
13705;BME280;6924;52.122;9.952;2023-03-22T09:29:59;99760.06;;;12.47;82.84
13705;BME280;6924;52.122;9.952;2023-03-22T09:32:25;99756.66;;;12.53;82.65
13705;BME280;6924;52.122;9.952;2023-03-22T09:34:52;99756.44;;;12.58;82.58
13705;BME280;6924;52.122;9.952;2023-03-22T09:37:19;99753.81;;;12.53;82.24
13705;BME280;6924;52.122;9.952;2023-03-22T09:39:45;99749.78;;;12.54;80.73
13705;BME280;6924;52.122;9.952;2023-03-22T09:42:23;99750.69;;;12.67;81.78
13705;BME280;6924;52.122;9.952;2023-03-22T09:44:53;99749.63;;;12.72;81.85
13705;BME280;6924;52.122;9.952;2023-03-22T09:47:27;99740.22;;;12.80;81.64
13705;BME280;6924;52.122;9.952;2023-03-22T09:50:02;99729.25;;;12.91;80.43
13705;BME280;6924;52.122;9.952;2023-03-22T09:52:30;99736.56;;;12.92;79.28
13705;BME280;6924;52.122;9.952;2023-03-22T09:54:57;99724.78;;;13.02;81.54
13705;BME280;6924;52.122;9.952;2023-03-22T09:57:28;99722.75;;;13.02;79.85
13705;BME280;6924;52.122;9.952;2023-03-22T10:00:02;99724.78;;;13.02;78.89
13705;BME280;6924;52.122;9.952;2023-03-22T10:02:44;99730.09;;;13.03;78.72
13705;BME280;6924;52.122;9.952;2023-03-22T10:05:17;99723.72;;;13.07;77.96
13705;BME280;6924;52.122;9.952;2023-03-22T10:08:00;99715.81;;;13.24;79.96
13705;BME280;6924;52.122;9.952;2023-03-22T10:45:32;99692.56;;;14.93;70.72
13705;BME280;6924;52.122;9.952;2023-03-22T10:47:16;99695.69;;;15.20;69.42
13705;BME280;6924;52.122;9.952;2023-03-22T10:49:47;99682.84;;;15.26;68.23
13705;BME280;6924;52.122;9.952;2023-03-22T10:52:29;99698.69;;;15.43;66.51
13705;BME280;6924;52.122;9.952;2023-03-22T10:55:01;99680.75;;;15.58;67.72
13705;BME280;6924;52.122;9.952;2023-03-22T10:57:29;99689.41;;;15.78;67.19
13705;BME280;6924;52.122;9.952;2023-03-22T10:59:56;99682.91;;;15.97;67.59
13705;BME280;6924;52.122;9.952;2023-03-22T11:02:24;99691.25;;;16.05;64.06
13705;BME280;6924;52.122;9.952;2023-03-22T11:04:53;99683.91;;;16.04;64.53
13705;BME280;6924;52.122;9.952;2023-03-22T11:07:33;99685.13;;;15.52;60.45
13705;BME280;6924;52.122;9.952;2023-03-22T11:10:20;99680.69;;;15.39;62.18
13705;BME280;6924;52.122;9.952;2023-03-22T11:12:50;99680.88;;;15.46;64.35
13705;BME280;6924;52.122;9.952;2023-03-22T11:15:24;99686.56;;;15.62;63.31
13705;BME280;6924;52.122;9.952;2023-03-22T11:17:53;99678.81;;;15.62;61.33
13705;BME280;6924;52.122;9.952;2023-03-22T11:20:19;99680.50;;;15.63;62.98
13705;BME280;6924;52.122;9.952;2023-03-22T11:22:47;99677.38;;;15.53;63.21
13705;BME280;6924;52.122;9.952;2023-03-22T11:25:16;99662.31;;;15.52;63.45
13705;BME280;6924;52.122;9.952;2023-03-22T11:27:51;99658.34;;;15.57;60.96
13705;BME280;6924;52.122;9.952;2023-03-22T11:30:20;99659.72;;;15.47;60.74
13705;BME280;6924;52.122;9.952;2023-03-22T11:32:48;99655.44;;;15.37;62.80
13705;BME280;6924;52.122;9.952;2023-03-22T11:35:17;99662.34;;;15.20;62.09
13705;BME280;6924;52.122;9.952;2023-03-22T11:37:47;99670.13;;;15.23;63.77
13705;BME280;6924;52.122;9.952;2023-03-22T11:40:16;99647.34;;;15.39;64.19
13705;BME280;6924;52.122;9.952;2023-03-22T11:42:44;99651.28;;;15.50;65.89
13705;BME280;6924;52.122;9.952;2023-03-22T11:45:15;99656.22;;;15.54;61.21
13705;BME280;6924;52.122;9.952;2023-03-22T11:47:44;99663.47;;;15.67;64.30
13705;BME280;6924;52.122;9.952;2023-03-22T11:50:25;99665.31;;;15.59;60.97
13705;BME280;6924;52.122;9.952;2023-03-22T11:52:52;99660.09;;;15.61;61.60
13705;BME280;6924;52.122;9.952;2023-03-22T11:55:21;99663.19;;;15.56;61.32
13705;BME280;6924;52.122;9.952;2023-03-22T11:57:48;99671.75;;;15.56;62.15
13705;BME280;6924;52.122;9.952;2023-03-22T12:00:19;99676.28;;;15.57;60.79
13705;BME280;6924;52.122;9.952;2023-03-22T12:02:49;99673.41;;;15.57;60.27
13705;BME280;6924;52.122;9.952;2023-03-22T12:05:20;99678.81;;;15.62;60.45
13705;BME280;6924;52.122;9.952;2023-03-22T12:07:51;99669.00;;;15.60;60.28
13705;BME280;6924;52.122;9.952;2023-03-22T12:10:23;99674.41;;;15.65;62.43
13705;BME280;6924;52.122;9.952;2023-03-22T12:12:54;99679.94;;;15.58;61.29
13705;BME280;6924;52.122;9.952;2023-03-22T12:15:25;99676.72;;;15.59;60.20
13705;BME280;6924;52.122;9.952;2023-03-22T12:17:57;99679.84;;;15.54;61.53
13705;BME280;6924;52.122;9.952;2023-03-22T12:20:35;99678.66;;;15.55;62.64
13705;BME280;6924;52.122;9.952;2023-03-22T12:23:11;99676.63;;;15.72;64.96
13705;BME280;6924;52.122;9.952;2023-03-22T12:25:39;99673.13;;;15.78;62.01
13705;BME280;6924;52.122;9.952;2023-03-22T12:28:12;99671.66;;;15.68;60.57
13705;BME280;6924;52.122;9.952;2023-03-22T12:30:45;99666.69;;;15.65;62.12
13705;BME280;6924;52.122;9.952;2023-03-22T12:33:16;99671.03;;;15.75;62.19
13705;BME280;6924;52.122;9.952;2023-03-22T12:35:45;99670.56;;;15.73;60.47
13705;BME280;6924;52.122;9.952;2023-03-22T12:38:22;99677.19;;;15.61;60.23
13705;BME280;6924;52.122;9.952;2023-03-22T12:40:52;99675.25;;;15.49;60.13
13705;BME280;6924;52.122;9.952;2023-03-22T12:43:25;99681.59;;;15.43;60.81
13705;BME280;6924;52.122;9.952;2023-03-22T12:45:59;99677.41;;;15.37;59.90
13705;BME280;6924;52.122;9.952;2023-03-22T12:48:32;99681.97;;;15.25;61.86
13705;BME280;6924;52.122;9.952;2023-03-22T12:51:04;99677.22;;;15.14;60.03
13705;BME280;6924;52.122;9.952;2023-03-22T12:53:34;99676.69;;;15.08;61.39
13705;BME280;6924;52.122;9.952;2023-03-22T12:56:08;99671.81;;;14.93;61.56
13705;BME280;6924;52.122;9.952;2023-03-22T12:58:35;99673.44;;;14.94;61.75
13705;BME280;6924;52.122;9.952;2023-03-22T13:01:15;99672.25;;;14.95;61.64
13705;BME280;6924;52.122;9.952;2023-03-22T13:03:47;99669.22;;;14.87;61.66
13705;BME280;6924;52.122;9.952;2023-03-22T13:06:33;99664.72;;;14.86;61.53
13705;BME280;6924;52.122;9.952;2023-03-22T13:09:34;99663.91;;;14.86;62.07
13705;BME280;6924;52.122;9.952;2023-03-22T13:12:30;99662.34;;;14.88;62.40
13705;BME280;6924;52.122;9.952;2023-03-22T13:14:59;99656.00;;;14.79;61.68
13705;BME280;6924;52.122;9.952;2023-03-22T13:17:41;99655.47;;;14.61;63.03
13705;BME280;6924;52.122;9.952;2023-03-22T13:20:26;99644.84;;;14.58;62.28
13705;BME280;6924;52.122;9.952;2023-03-22T13:23:26;99648.50;;;14.59;64.04
13705;BME280;6924;52.122;9.952;2023-03-22T13:26:01;99635.03;;;14.56;64.41
13705;BME280;6924;52.122;9.952;2023-03-22T13:28:28;99629.41;;;14.59;63.87
13705;BME280;6924;52.122;9.952;2023-03-22T13:31:01;99629.19;;;14.52;62.42
13705;BME280;6924;52.122;9.952;2023-03-22T13:33:31;99629.81;;;14.45;63.23
13705;BME280;6924;52.122;9.952;2023-03-22T13:36:04;99618.44;;;14.45;63.25
13705;BME280;6924;52.122;9.952;2023-03-22T13:38:33;99621.63;;;14.44;63.24
13705;BME280;6924;52.122;9.952;2023-03-22T13:41:02;99616.41;;;14.46;64.79
13705;BME280;6924;52.122;9.952;2023-03-22T13:43:33;99618.09;;;14.47;63.57
13705;BME280;6924;52.122;9.952;2023-03-22T13:46:10;99620.81;;;14.43;63.85
13705;BME280;6924;52.122;9.952;2023-03-22T13:49:13;99625.34;;;14.44;62.99
13705;BME280;6924;52.122;9.952;2023-03-22T13:51:42;99623.50;;;14.52;64.87
13705;BME280;6924;52.122;9.952;2023-03-22T13:54:16;99623.63;;;14.56;64.88
13705;BME280;6924;52.122;9.952;2023-03-22T13:56:50;99620.34;;;14.41;62.58
13705;BME280;6924;52.122;9.952;2023-03-22T13:59:22;99614.47;;;14.34;61.97
13705;BME280;6924;52.122;9.952;2023-03-22T14:01:52;99635.13;;;14.31;63.72
13705;BME280;6924;52.122;9.952;2023-03-22T14:04:27;99622.06;;;14.30;63.42